createdAt,value
2023-05-19T02:04:35.983Z,7.96
2023-05-19T02:07:13.179Z,7.97
2023-05-19T02:09:56.421Z,7.95
2023-05-19T02:12:29.183Z,7.95
2023-05-19T02:15:05.359Z,7.91
2023-05-19T02:17:40.355Z,7.81
2023-05-19T02:20:14.022Z,7.78
2023-05-19T02:22:44.157Z,7.77
2023-05-19T02:25:14.256Z,7.74
2023-05-19T02:27:44.924Z,7.73
2023-05-19T02:30:14.982Z,7.73
2023-05-19T02:32:47.013Z,7.73
2023-05-19T02:35:19.917Z,7.70
2023-05-19T02:37:49.716Z,7.67
2023-05-19T02:40:20.112Z,7.64
2023-05-19T02:42:49.855Z,7.68
2023-05-19T02:45:19.663Z,7.74
2023-05-19T02:47:49.507Z,7.67
2023-05-19T02:50:22.720Z,7.68
2023-05-19T02:52:54.078Z,7.67
2023-05-19T02:55:23.963Z,7.70
2023-05-19T02:57:53.775Z,7.70
2023-05-19T03:00:23.770Z,7.72
2023-05-19T03:02:54.348Z,7.66
2023-05-19T03:05:26.990Z,7.68
2023-05-19T03:07:56.804Z,7.69
2023-05-19T03:10:26.673Z,7.66
2023-05-19T03:12:56.436Z,7.67
2023-05-19T03:15:26.265Z,7.65
2023-05-19T03:17:56.089Z,7.70
2023-05-19T03:20:30.917Z,7.73
2023-05-19T03:23:01.204Z,7.67
2023-05-19T03:25:30.963Z,7.69
2023-05-19T03:28:00.730Z,7.67
2023-05-19T03:30:30.800Z,7.72
2023-05-19T03:33:09.365Z,7.66
2023-05-19T03:35:41.871Z,7.66
2023-05-19T03:38:12.008Z,7.67
2023-05-19T03:40:45.197Z,7.68
2023-05-19T03:43:16.324Z,7.65
2023-05-19T03:45:54.787Z,7.67
2023-05-19T03:48:43.667Z,7.64
2023-05-19T03:51:21.919Z,7.66
2023-05-19T03:53:54.197Z,7.64
2023-05-19T03:56:25.212Z,7.67
2023-05-19T03:58:54.946Z,7.61
2023-05-19T04:01:24.753Z,7.62
2023-05-19T04:03:54.576Z,7.64
2023-05-19T04:06:27.150Z,7.70
2023-05-19T04:08:57.256Z,7.73
2023-05-19T04:11:27.055Z,7.75
2023-05-19T04:13:56.805Z,7.81
2023-05-19T04:16:26.735Z,7.83
2023-05-19T04:18:57.045Z,7.85
2023-05-19T04:21:30.401Z,7.76
2023-05-19T04:24:00.764Z,7.75
2023-05-19T04:26:31.104Z,7.75
2023-05-19T04:29:01.987Z,7.81
2023-05-19T04:31:32.009Z,7.86
2023-05-19T04:34:02.118Z,7.88
2023-05-19T04:36:34.737Z,7.86
2023-05-19T04:39:08.023Z,7.84
2023-05-19T04:41:40.611Z,7.88
2023-05-19T04:44:13.666Z,7.87
2023-05-19T04:46:45.365Z,7.90
2023-05-19T04:49:15.923Z,7.91
2023-05-19T04:51:51.082Z,8.01
2023-05-19T04:54:26.573Z,7.94
2023-05-19T04:56:57.456Z,7.95
2023-05-19T04:59:29.659Z,8.00
2023-05-19T05:01:59.910Z,7.97
2023-05-19T05:04:32.677Z,7.98
2023-05-19T05:07:05.204Z,8.01
2023-05-19T05:09:36.001Z,8.07
2023-05-19T05:12:08.039Z,8.11
2023-05-19T05:14:40.453Z,8.14
2023-05-19T05:17:12.962Z,8.19
2023-05-19T05:19:43.380Z,8.31
2023-05-19T05:22:16.660Z,8.36
2023-05-19T05:24:47.199Z,8.43
2023-05-19T05:27:17.072Z,8.49
2023-05-19T05:29:46.878Z,8.52
2023-05-19T05:32:17.544Z,8.52
2023-05-19T05:34:47.598Z,8.54
2023-05-19T05:37:20.779Z,8.56
2023-05-19T05:39:50.568Z,8.60
2023-05-19T05:42:20.451Z,8.70
2023-05-19T05:44:51.764Z,8.81
2023-05-19T05:47:22.187Z,8.87
2023-05-19T05:49:53.540Z,9.03
2023-05-19T05:52:29.430Z,9.25
2023-05-19T05:55:00.157Z,9.29
2023-05-19T05:57:30.728Z,9.31
2023-05-19T06:00:00.501Z,9.38
2023-05-19T06:02:30.522Z,9.44
2023-05-19T06:05:02.639Z,9.52
2023-05-19T06:07:35.151Z,9.65
2023-05-19T06:10:05.053Z,9.75
2023-05-19T06:12:34.986Z,9.78
2023-05-19T06:15:05.837Z,9.87
2023-05-19T06:18:02.271Z,9.91
2023-05-19T06:20:32.662Z,10.15
2023-05-19T06:23:05.992Z,10.13
2023-05-19T06:25:35.903Z,10.10
2023-05-19T06:28:06.214Z,10.24
2023-05-19T06:30:36.949Z,10.20
2023-05-19T06:33:17.955Z,10.24
2023-05-19T06:35:48.015Z,10.20
2023-05-19T06:38:22.366Z,10.24
2023-05-19T06:40:53.634Z,10.43
2023-05-19T06:43:25.932Z,10.55
2023-05-19T06:46:00.569Z,10.62
2023-05-19T06:48:32.109Z,10.76
2023-05-19T06:51:02.481Z,10.76
2023-05-19T06:53:37.014Z,10.70
2023-05-19T06:56:11.028Z,10.88
2023-05-19T06:58:43.334Z,10.85
2023-05-19T07:01:14.423Z,11.06
2023-05-19T07:03:49.634Z,11.02
2023-05-19T07:06:19.706Z,11.20
2023-05-19T07:08:52.506Z,11.33
2023-05-19T07:11:22.981Z,11.32
2023-05-19T07:13:54.382Z,11.35
2023-05-19T07:16:29.958Z,11.34
2023-05-19T07:18:59.974Z,11.47
2023-05-19T07:21:30.119Z,11.57
2023-05-19T07:24:02.741Z,11.78
2023-05-19T07:26:32.815Z,11.84
2023-05-19T07:29:02.885Z,11.84
2023-05-19T07:31:32.943Z,11.86
2023-05-19T07:34:02.989Z,11.87
2023-05-19T07:36:33.161Z,11.90
2023-05-19T07:39:06.146Z,12.08
2023-05-19T07:41:36.547Z,12.15
2023-05-19T07:44:08.063Z,12.31
2023-05-19T07:46:38.083Z,12.31
2023-05-19T07:49:08.141Z,12.37
2023-05-19T07:51:37.903Z,12.48
2023-05-19T07:54:10.840Z,12.53
2023-05-19T07:56:40.821Z,12.52
2023-05-19T07:59:10.989Z,12.87
2023-05-19T08:01:41.053Z,12.84
2023-05-19T08:04:12.701Z,12.98
2023-05-19T08:06:44.560Z,13.10
2023-05-19T08:09:16.994Z,13.09
2023-05-19T08:11:47.076Z,13.29
2023-05-19T08:14:16.887Z,13.40
2023-05-19T08:16:46.938Z,13.58
2023-05-19T08:19:16.797Z,13.85
2023-05-19T08:21:46.742Z,14.08
2023-05-19T08:24:19.289Z,14.34
2023-05-19T08:26:49.292Z,14.78
2023-05-19T08:29:19.110Z,14.81
2023-05-19T08:31:49.235Z,15.07
2023-05-19T08:34:19.306Z,15.41
2023-05-19T08:36:49.184Z,15.78
2023-05-19T08:39:26.754Z,16.20
2023-05-19T08:41:56.668Z,16.50
2023-05-19T08:44:26.609Z,16.78
2023-05-19T08:46:57.622Z,17.18
2023-05-19T08:49:30.630Z,17.47
2023-05-19T08:52:06.326Z,17.82
2023-05-19T08:54:47.021Z,17.58
2023-05-19T08:57:17.004Z,17.87
2023-05-19T08:59:47.005Z,18.28
2023-05-19T09:02:17.184Z,18.45
2023-05-19T09:04:48.260Z,18.47
2023-05-19T09:07:19.012Z,18.62
2023-05-19T09:09:52.087Z,18.82
2023-05-19T09:12:22.108Z,19.11
2023-05-19T09:14:52.179Z,19.10
2023-05-19T09:17:22.123Z,19.05
2023-05-19T09:19:52.188Z,19.35
2023-05-19T09:22:22.509Z,19.63
2023-05-19T09:24:55.260Z,19.76
2023-05-19T09:27:25.909Z,20.04
2023-05-19T09:29:55.632Z,19.56
2023-05-19T09:32:28.932Z,19.38
2023-05-19T09:34:58.884Z,19.07
2023-05-19T09:37:31.239Z,19.26
2023-05-19T09:40:05.745Z,19.09
2023-05-19T09:42:40.787Z,18.66
2023-05-19T09:45:12.092Z,18.87
2023-05-19T09:47:43.037Z,19.28
2023-05-19T09:50:14.282Z,19.34
2023-05-19T09:52:46.561Z,19.22
2023-05-19T09:55:23.410Z,18.97
2023-05-19T09:57:53.367Z,18.47
2023-05-19T10:00:23.546Z,18.21
2023-05-19T10:02:53.488Z,18.39
2023-05-19T10:05:23.841Z,18.55
2023-05-19T10:07:54.735Z,18.84
2023-05-19T10:10:27.190Z,18.88
2023-05-19T10:12:57.450Z,19.01
2023-05-19T10:15:27.973Z,19.43
2023-05-19T10:17:58.279Z,19.83
2023-05-19T10:20:29.970Z,20.16
2023-05-19T10:22:59.883Z,20.04
2023-05-19T10:25:33.409Z,20.25
2023-05-19T10:28:07.947Z,20.08
2023-05-19T10:30:41.181Z,19.92
2023-05-19T10:33:14.031Z,19.76
2023-05-19T10:35:55.940Z,19.87
2023-05-19T10:38:32.444Z,20.02
2023-05-19T10:41:10.747Z,20.17
2023-05-19T10:43:59.295Z,20.10
2023-05-19T10:46:29.921Z,20.46
2023-05-19T10:48:59.872Z,20.64
2023-05-19T10:51:32.428Z,20.24
2023-05-19T10:54:08.248Z,19.82
2023-05-19T10:56:42.794Z,20.28
2023-05-19T10:59:37.349Z,20.42
2023-05-19T11:02:07.979Z,20.49
2023-05-19T11:04:51.946Z,20.28
2023-05-19T11:07:24.816Z,19.91
2023-05-19T11:09:55.258Z,19.51
2023-05-19T11:12:27.782Z,19.50
2023-05-19T11:14:58.369Z,19.71
2023-05-19T11:17:28.590Z,19.32
2023-05-19T11:20:00.338Z,19.19
2023-05-19T11:22:31.289Z,19.12
2023-05-19T11:25:01.353Z,19.33
2023-05-19T11:27:35.129Z,19.80
2023-05-19T11:30:14.751Z,20.31
2023-05-19T11:32:45.069Z,20.70
2023-05-19T11:35:16.918Z,20.63
2023-05-19T11:37:47.906Z,20.67
2023-05-19T11:40:18.734Z,20.87
2023-05-19T11:42:51.116Z,20.98
2023-05-19T11:45:21.014Z,20.84
2023-05-19T11:48:02.035Z,20.26
2023-05-19T11:50:34.140Z,19.99
2023-05-19T11:53:04.284Z,19.98
2023-05-19T11:55:34.853Z,20.46
2023-05-19T11:58:07.512Z,20.81
2023-05-19T12:00:41.391Z,20.97
2023-05-19T12:03:11.754Z,21.25
2023-05-19T12:05:46.044Z,21.36
2023-05-19T12:08:17.294Z,21.60
2023-05-19T12:10:47.043Z,21.53
2023-05-19T12:13:19.981Z,21.41
2023-05-19T12:15:49.883Z,20.71
2023-05-19T12:18:19.771Z,20.12
2023-05-19T12:20:49.715Z,19.63
2023-05-19T12:23:19.585Z,19.39
2023-05-19T12:25:49.503Z,19.31
2023-05-19T12:28:22.635Z,19.35
2023-05-19T12:30:53.819Z,19.37
2023-05-19T12:33:24.673Z,19.79
2023-05-19T12:35:54.626Z,20.19
2023-05-19T12:38:24.607Z,20.45
2023-05-19T12:40:54.414Z,20.69
2023-05-19T12:43:27.093Z,20.78
2023-05-19T12:45:56.978Z,20.73
2023-05-19T12:48:26.867Z,20.48
2023-05-19T12:50:57.012Z,20.75
2023-05-19T12:53:29.765Z,20.84
2023-05-19T12:55:59.658Z,20.99
2023-05-19T12:58:32.138Z,21.02
2023-05-19T13:01:02.923Z,20.89
2023-05-19T13:03:32.935Z,21.11
2023-05-19T13:06:02.742Z,21.22
2023-05-19T13:08:32.798Z,21.34
2023-05-19T13:11:02.589Z,21.57
2023-05-19T13:13:35.076Z,21.13
2023-05-19T13:16:04.925Z,20.53
2023-05-19T13:18:37.791Z,20.51
2023-05-19T13:21:08.523Z,20.64
2023-05-19T13:23:38.406Z,20.76
2023-05-19T13:26:08.219Z,20.92
2023-05-19T13:28:40.648Z,20.62
2023-05-19T13:31:10.784Z,20.26
2023-05-19T13:33:40.655Z,19.98
2023-05-19T13:36:11.040Z,19.92
2023-05-19T13:38:42.090Z,20.17
2023-05-19T13:41:13.732Z,20.27
2023-05-19T13:43:46.455Z,20.37
2023-05-19T13:46:16.342Z,20.35
2023-05-19T13:48:46.389Z,20.53
2023-05-19T13:51:16.357Z,20.71
2023-05-19T13:53:46.175Z,20.89
2023-05-19T13:56:15.953Z,20.87
2023-05-19T13:58:48.368Z,20.75
2023-05-19T14:01:18.145Z,20.40
2023-05-19T14:03:48.397Z,19.89
2023-05-19T14:06:18.352Z,19.54
2023-05-19T14:08:48.742Z,19.51
2023-05-19T14:11:21.797Z,19.71
2023-05-19T14:13:54.394Z,19.86
2023-05-19T14:16:26.515Z,20.06
2023-05-19T14:18:56.322Z,20.28
2023-05-19T14:21:26.930Z,20.29
2023-05-19T14:24:33.732Z,20.41
2023-05-19T14:27:03.720Z,20.34
2023-05-19T14:29:36.188Z,20.16
2023-05-19T14:32:10.495Z,19.97
2023-05-19T14:34:42.162Z,19.81
2023-05-19T14:37:26.926Z,19.57
2023-05-19T14:40:12.093Z,19.72
2023-05-19T14:42:42.111Z,19.82
2023-05-19T14:45:15.366Z,19.61
2023-05-19T14:47:56.080Z,19.80
2023-05-19T14:50:39.977Z,19.78
2023-05-19T14:53:13.327Z,19.75
2023-05-19T14:55:43.478Z,19.76
2023-05-19T14:58:27.395Z,19.84
2023-05-19T15:01:02.976Z,20.02
2023-05-19T15:03:32.905Z,19.91
2023-05-19T15:06:02.972Z,19.88
2023-05-19T15:08:32.805Z,19.62
2023-05-19T15:11:02.633Z,19.31
2023-05-19T15:13:32.687Z,19.11
2023-05-19T15:16:16.978Z,18.96
2023-05-19T15:18:48.017Z,18.96
2023-05-19T15:21:17.985Z,19.11
2023-05-19T15:23:48.029Z,19.10
2023-05-19T15:26:18.092Z,19.31
2023-05-19T15:28:48.001Z,19.34
2023-05-19T15:31:22.425Z,19.64
2023-05-19T15:33:52.447Z,19.47
2023-05-19T15:36:22.836Z,19.16
2023-05-19T15:38:52.970Z,19.07
2023-05-19T15:41:23.009Z,19.04
2023-05-19T15:43:53.681Z,18.86
2023-05-19T15:46:26.462Z,18.78
2023-05-19T15:48:56.633Z,18.80
2023-05-19T15:51:27.059Z,18.85
2023-05-19T15:53:56.997Z,18.86
2023-05-19T15:56:27.172Z,18.90
2023-05-19T15:58:57.271Z,18.91
2023-05-19T16:01:30.131Z,19.01
2023-05-19T16:04:02.427Z,19.02
2023-05-19T16:06:32.469Z,18.94
2023-05-19T16:09:02.571Z,18.96
2023-05-19T16:11:32.984Z,18.96
2023-05-19T16:14:03.258Z,18.88
2023-05-19T16:16:39.225Z,18.81
2023-05-19T16:19:09.607Z,18.66
2023-05-19T16:21:39.715Z,18.63
2023-05-19T16:24:09.974Z,18.50
2023-05-19T16:26:39.966Z,18.39
2023-05-19T16:29:10.183Z,18.23
2023-05-19T16:31:43.131Z,18.23
2023-05-19T16:34:13.204Z,18.27
2023-05-19T16:36:43.196Z,18.28
2023-05-19T16:39:13.702Z,18.30
2023-05-19T16:41:43.522Z,18.25
2023-05-19T16:44:14.768Z,18.18
2023-05-19T16:46:48.028Z,18.16
2023-05-19T16:49:18.258Z,18.08
2023-05-19T16:51:48.960Z,18.11
2023-05-19T16:54:19.252Z,17.98
2023-05-19T16:56:49.453Z,17.82
2023-05-19T16:59:19.658Z,17.80
2023-05-19T17:01:52.400Z,17.76
2023-05-19T17:04:22.393Z,17.69
2023-05-19T17:06:52.515Z,17.51
2023-05-19T17:09:25.520Z,17.53
2023-05-19T17:11:55.956Z,17.56
2023-05-19T17:14:25.979Z,17.57
2023-05-19T17:16:58.661Z,17.60
2023-05-19T17:19:28.979Z,17.51
2023-05-19T17:21:59.231Z,17.40
2023-05-19T17:24:29.355Z,17.43
2023-05-19T17:26:59.243Z,17.38
2023-05-19T17:29:29.810Z,17.34
2023-05-19T17:32:02.177Z,17.35
2023-05-19T17:34:32.274Z,17.49
2023-05-19T17:37:02.371Z,17.48
2023-05-19T17:39:32.204Z,17.52
2023-05-19T17:42:02.199Z,17.65
2023-05-19T17:44:32.111Z,17.58
2023-05-19T17:47:05.411Z,17.71
2023-05-19T17:49:35.347Z,17.46
2023-05-19T17:52:05.877Z,17.40
2023-05-19T17:54:36.473Z,17.28
2023-05-19T17:57:06.702Z,17.06
2023-05-19T17:59:37.418Z,17.03
2023-05-19T18:02:13.480Z,16.96
2023-05-19T18:04:44.717Z,16.91
2023-05-19T18:07:14.817Z,16.77
2023-05-19T18:09:47.769Z,16.79
2023-05-19T18:12:17.734Z,16.67
2023-05-19T18:14:47.596Z,16.62
2023-05-19T18:17:20.037Z,16.59
2023-05-19T18:19:50.122Z,16.52
2023-05-19T18:22:20.011Z,16.54
2023-05-19T18:24:49.856Z,16.49
2023-05-19T18:27:19.709Z,16.54
2023-05-19T18:29:49.594Z,16.51
2023-05-19T18:32:22.048Z,16.65
2023-05-19T18:34:52.256Z,16.65
2023-05-19T18:37:22.130Z,16.48
2023-05-19T18:39:51.973Z,16.36
2023-05-19T18:52:45.498Z,16.17
2023-05-19T18:53:53.875Z,16.22
2023-05-19T18:55:15.644Z,16.18
2023-05-19T18:58:30.741Z,16.00
2023-05-19T19:04:53.797Z,15.96
2023-05-19T19:26:03.357Z,15.64
2023-05-19T19:28:34.135Z,15.64
2023-05-19T19:31:07.719Z,15.55
2023-05-19T19:33:47.242Z,15.62
2023-05-19T19:36:17.518Z,15.64
2023-05-19T19:38:51.450Z,15.72
2023-05-19T19:42:21.220Z,15.79
2023-05-19T19:45:08.287Z,15.76
2023-05-19T19:47:46.457Z,15.77
2023-05-19T19:50:17.234Z,15.76
2023-05-19T19:52:56.827Z,15.72
2023-05-19T19:55:41.678Z,15.68
2023-05-19T19:58:26.200Z,15.60
2023-05-19T20:01:05.501Z,15.59
2023-05-19T20:03:43.597Z,15.53
2023-05-19T20:06:14.442Z,15.42
2023-05-19T20:08:44.477Z,15.30
2023-05-19T20:11:14.631Z,15.31
2023-05-19T20:13:47.811Z,15.31
2023-05-19T20:16:18.638Z,15.26
2023-05-19T20:18:52.007Z,15.27
2023-05-19T20:21:25.424Z,15.22
2023-05-19T20:23:56.546Z,15.16
2023-05-19T20:26:41.050Z,15.12
2023-05-19T20:29:30.326Z,15.09
2023-05-19T20:32:17.371Z,15.09
2023-05-19T20:35:06.130Z,14.95
2023-05-19T20:37:40.586Z,14.91
2023-05-19T20:40:23.745Z,14.85
2023-05-19T20:42:55.685Z,14.77
2023-05-19T20:45:38.112Z,14.79
2023-05-19T20:48:11.272Z,14.70
2023-05-19T20:50:42.320Z,14.68
2023-05-19T20:53:15.308Z,14.65
2023-05-19T20:55:47.697Z,14.73
2023-05-19T20:58:20.933Z,14.77
2023-05-19T21:00:58.169Z,14.80
2023-05-19T21:03:33.736Z,14.69
2023-05-19T21:06:04.541Z,14.69
2023-05-19T21:08:35.753Z,14.68
2023-05-19T21:11:08.637Z,14.69
2023-05-19T21:13:39.539Z,14.63
2023-05-19T23:23:22.477Z,12.08
2023-05-19T23:25:52.254Z,12.03
2023-05-19T23:28:22.109Z,11.96
2023-05-19T23:30:51.912Z,11.95
2023-05-19T23:33:21.731Z,11.99
2023-05-19T23:35:51.649Z,11.90
2023-05-19T23:38:24.099Z,11.85
2023-05-19T23:40:53.831Z,11.86
2023-05-19T23:43:23.594Z,11.78
2023-05-19T23:45:53.492Z,11.71
2023-05-19T23:48:23.361Z,11.73
2023-05-19T23:50:53.168Z,11.67
2023-05-19T23:53:25.507Z,11.61
2023-05-19T23:55:56.463Z,11.52
2023-05-19T23:58:27.067Z,11.53
